sensor_id;sensor_type;location;lat;lon;timestamp;temperature;humidity
11656;DHT22;5884;43.618;1.438;2022-07-04T04:47:40;18.20;99.90
11656;DHT22;5884;43.618;1.438;2022-07-04T04:50:09;18.20;99.90
11656;DHT22;5884;43.618;1.438;2022-07-04T04:52:37;18.10;99.90
11656;DHT22;5884;43.618;1.438;2022-07-04T04:55:05;18.10;99.90
11656;DHT22;5884;43.618;1.438;2022-07-04T04:57:33;18.10;99.90
11656;DHT22;5884;43.618;1.438;2022-07-04T05:00:01;18.10;99.90
11656;DHT22;5884;43.618;1.438;2022-07-04T05:02:30;18.10;99.90
11656;DHT22;5884;43.618;1.438;2022-07-04T05:04:59;18.20;99.90
11656;DHT22;5884;43.618;1.438;2022-07-04T05:07:26;18.20;99.90
11656;DHT22;5884;43.618;1.438;2022-07-04T05:09:53;18.30;99.90
11656;DHT22;5884;43.618;1.438;2022-07-04T05:12:24;18.30;99.90
11656;DHT22;5884;43.618;1.438;2022-07-04T05:14:52;18.30;99.90
11656;DHT22;5884;43.618;1.438;2022-07-04T05:17:20;18.20;99.90
11656;DHT22;5884;43.618;1.438;2022-07-04T05:19:47;18.20;99.90
11656;DHT22;5884;43.618;1.438;2022-07-04T05:22:16;18.20;99.90
11656;DHT22;5884;43.618;1.438;2022-07-04T05:24:43;18.30;99.90
11656;DHT22;5884;43.618;1.438;2022-07-04T05:27:10;18.40;99.90
11656;DHT22;5884;43.618;1.438;2022-07-04T05:29:38;18.40;99.90
11656;DHT22;5884;43.618;1.438;2022-07-04T05:32:06;18.50;99.90
11656;DHT22;5884;43.618;1.438;2022-07-04T05:34:34;18.60;99.90
11656;DHT22;5884;43.618;1.438;2022-07-04T05:37:01;18.70;99.90
11656;DHT22;5884;43.618;1.438;2022-07-04T05:39:31;18.80;99.90
11656;DHT22;5884;43.618;1.438;2022-07-04T05:41:58;19.00;99.90
11656;DHT22;5884;43.618;1.438;2022-07-04T05:44:25;19.00;99.90
11656;DHT22;5884;43.618;1.438;2022-07-04T05:46:54;19.00;99.90
11656;DHT22;5884;43.618;1.438;2022-07-04T05:49:21;19.00;99.90
11656;DHT22;5884;43.618;1.438;2022-07-04T05:51:48;18.90;99.90
11656;DHT22;5884;43.618;1.438;2022-07-04T05:54:16;18.90;99.90
11656;DHT22;5884;43.618;1.438;2022-07-04T05:56:44;18.90;99.90
11656;DHT22;5884;43.618;1.438;2022-07-04T05:59:12;18.70;99.90
11656;DHT22;5884;43.618;1.438;2022-07-04T06:01:39;18.70;99.90
11656;DHT22;5884;43.618;1.438;2022-07-04T06:04:06;18.70;99.90
11656;DHT22;5884;43.618;1.438;2022-07-04T06:06:34;18.70;99.90
11656;DHT22;5884;43.618;1.438;2022-07-04T06:09:02;18.80;99.90
11656;DHT22;5884;43.618;1.438;2022-07-04T06:11:29;18.90;99.90
11656;DHT22;5884;43.618;1.438;2022-07-04T06:13:58;19.00;99.90
11656;DHT22;5884;43.618;1.438;2022-07-04T06:16:26;19.10;99.90
11656;DHT22;5884;43.618;1.438;2022-07-04T06:18:53;19.30;99.90
11656;DHT22;5884;43.618;1.438;2022-07-04T06:21:20;19.40;99.90
11656;DHT22;5884;43.618;1.438;2022-07-04T06:23:48;19.40;99.90
11656;DHT22;5884;43.618;1.438;2022-07-04T06:26:15;19.50;99.90
11656;DHT22;5884;43.618;1.438;2022-07-04T06:28:42;19.60;99.90
11656;DHT22;5884;43.618;1.438;2022-07-04T06:31:12;19.70;99.90
11656;DHT22;5884;43.618;1.438;2022-07-04T06:33:39;19.80;99.90
11656;DHT22;5884;43.618;1.438;2022-07-04T06:36:20;19.80;99.90
11656;DHT22;5884;43.618;1.438;2022-07-04T06:38:47;19.80;99.90
11656;DHT22;5884;43.618;1.438;2022-07-04T06:41:15;20.00;99.90
11656;DHT22;5884;43.618;1.438;2022-07-04T06:43:42;20.20;99.90
11656;DHT22;5884;43.618;1.438;2022-07-04T06:46:09;20.10;99.90
11656;DHT22;5884;43.618;1.438;2022-07-04T06:48:38;20.20;99.90
11656;DHT22;5884;43.618;1.438;2022-07-04T06:51:05;20.30;99.90
11656;DHT22;5884;43.618;1.438;2022-07-04T06:53:33;20.20;99.90
11656;DHT22;5884;43.618;1.438;2022-07-04T06:56:00;20.40;99.90
11656;DHT22;5884;43.618;1.438;2022-07-04T06:58:27;20.30;99.90
11656;DHT22;5884;43.618;1.438;2022-07-04T07:00:55;20.60;99.90
11656;DHT22;5884;43.618;1.438;2022-07-04T07:03:22;20.80;99.90
11656;DHT22;5884;43.618;1.438;2022-07-04T07:05:51;20.70;99.90
11656;DHT22;5884;43.618;1.438;2022-07-04T07:08:18;20.50;99.90
11656;DHT22;5884;43.618;1.438;2022-07-04T07:10:45;20.30;99.90
11656;DHT22;5884;43.618;1.438;2022-07-04T07:13:12;20.50;99.90
11656;DHT22;5884;43.618;1.438;2022-07-04T07:15:40;20.50;99.90
11656;DHT22;5884;43.618;1.438;2022-07-04T07:18:07;20.30;99.90
11656;DHT22;5884;43.618;1.438;2022-07-04T07:20:34;20.20;99.90
11656;DHT22;5884;43.618;1.438;2022-07-04T07:23:03;20.20;99.90
11656;DHT22;5884;43.618;1.438;2022-07-04T07:25:31;20.20;99.90
11656;DHT22;5884;43.618;1.438;2022-07-04T07:27:58;20.30;99.90
11656;DHT22;5884;43.618;1.438;2022-07-04T07:30:26;20.50;99.90
11656;DHT22;5884;43.618;1.438;2022-07-04T07:32:53;20.60;99.90
11656;DHT22;5884;43.618;1.438;2022-07-04T07:35:21;20.80;99.90
11656;DHT22;5884;43.618;1.438;2022-07-04T07:37:48;20.80;99.90
11656;DHT22;5884;43.618;1.438;2022-07-04T07:40:17;20.60;99.90
11656;DHT22;5884;43.618;1.438;2022-07-04T07:42:44;20.60;99.90
11656;DHT22;5884;43.618;1.438;2022-07-04T07:45:11;20.80;99.90
11656;DHT22;5884;43.618;1.438;2022-07-04T07:47:38;20.90;99.90
11656;DHT22;5884;43.618;1.438;2022-07-04T07:50:06;21.10;99.90
11656;DHT22;5884;43.618;1.438;2022-07-04T07:52:35;21.20;99.90
11656;DHT22;5884;43.618;1.438;2022-07-04T07:55:03;21.10;99.90
11656;DHT22;5884;43.618;1.438;2022-07-04T07:57:33;21.60;99.90
11656;DHT22;5884;43.618;1.438;2022-07-04T08:00:01;23.30;99.90
11656;DHT22;5884;43.618;1.438;2022-07-04T08:02:29;26.00;99.90
11656;DHT22;5884;43.618;1.438;2022-07-04T08:05:23;27.40;99.90
11656;DHT22;5884;43.618;1.438;2022-07-04T08:07:50;27.40;99.90
11656;DHT22;5884;43.618;1.438;2022-07-04T08:10:17;25.60;99.90
11656;DHT22;5884;43.618;1.438;2022-07-04T08:12:46;23.90;99.90
11656;DHT22;5884;43.618;1.438;2022-07-04T08:15:13;23.40;99.90
11656;DHT22;5884;43.618;1.438;2022-07-04T08:17:41;23.10;99.90
11656;DHT22;5884;43.618;1.438;2022-07-04T08:20:09;23.00;99.90
11656;DHT22;5884;43.618;1.438;2022-07-04T08:22:37;23.20;99.90
11656;DHT22;5884;43.618;1.438;2022-07-04T08:25:05;23.00;99.90
11656;DHT22;5884;43.618;1.438;2022-07-04T08:27:32;22.90;99.90
11656;DHT22;5884;43.618;1.438;2022-07-04T08:30:01;22.70;99.90
11656;DHT22;5884;43.618;1.438;2022-07-04T08:32:28;22.30;99.90
11656;DHT22;5884;43.618;1.438;2022-07-04T08:34:56;22.20;99.90
11656;DHT22;5884;43.618;1.438;2022-07-04T08:37:23;22.40;99.90
11656;DHT22;5884;43.618;1.438;2022-07-04T08:39:50;22.30;99.90
11656;DHT22;5884;43.618;1.438;2022-07-04T08:42:19;22.40;99.90
11656;DHT22;5884;43.618;1.438;2022-07-04T08:44:49;22.60;99.90
11656;DHT22;5884;43.618;1.438;2022-07-04T08:47:20;22.50;99.90
11656;DHT22;5884;43.618;1.438;2022-07-04T08:49:53;22.50;99.90
11656;DHT22;5884;43.618;1.438;2022-07-04T08:52:30;22.30;99.90
11656;DHT22;5884;43.618;1.438;2022-07-04T08:55:00;22.30;99.90
11656;DHT22;5884;43.618;1.438;2022-07-04T08:57:46;22.40;99.90
11656;DHT22;5884;43.618;1.438;2022-07-04T09:00:32;22.40;99.90
11656;DHT22;5884;43.618;1.438;2022-07-04T09:03:02;22.50;99.90
11656;DHT22;5884;43.618;1.438;2022-07-04T09:05:30;22.60;99.90
11656;DHT22;5884;43.618;1.438;2022-07-04T09:07:58;22.70;99.90
11656;DHT22;5884;43.618;1.438;2022-07-04T09:10:26;22.60;99.90
11656;DHT22;5884;43.618;1.438;2022-07-04T09:12:54;22.90;99.90
11656;DHT22;5884;43.618;1.438;2022-07-04T09:15:21;23.20;99.90
11656;DHT22;5884;43.618;1.438;2022-07-04T09:17:48;23.20;99.90
11656;DHT22;5884;43.618;1.438;2022-07-04T09:20:19;23.10;99.90
11656;DHT22;5884;43.618;1.438;2022-07-04T09:22:49;23.10;99.90
11656;DHT22;5884;43.618;1.438;2022-07-04T09:25:18;23.30;99.90
11656;DHT22;5884;43.618;1.438;2022-07-04T09:27:47;23.40;99.90
11656;DHT22;5884;43.618;1.438;2022-07-04T09:30:16;23.30;99.90
11656;DHT22;5884;43.618;1.438;2022-07-04T09:32:46;23.20;99.90
11656;DHT22;5884;43.618;1.438;2022-07-04T09:35:18;23.10;99.90
11656;DHT22;5884;43.618;1.438;2022-07-04T09:37:50;22.90;99.90
11656;DHT22;5884;43.618;1.438;2022-07-04T09:40:23;22.50;99.90
11656;DHT22;5884;43.618;1.438;2022-07-04T09:42:52;22.80;99.90
11656;DHT22;5884;43.618;1.438;2022-07-04T09:45:19;22.90;99.90
11656;DHT22;5884;43.618;1.438;2022-07-04T09:47:50;23.10;99.90
11656;DHT22;5884;43.618;1.438;2022-07-04T09:50:24;23.10;99.90
11656;DHT22;5884;43.618;1.438;2022-07-04T09:52:54;23.10;99.90
11656;DHT22;5884;43.618;1.438;2022-07-04T09:55:24;23.30;99.90
11656;DHT22;5884;43.618;1.438;2022-07-04T09:57:53;23.40;99.90
11656;DHT22;5884;43.618;1.438;2022-07-04T10:00:23;23.50;99.90
11656;DHT22;5884;43.618;1.438;2022-07-04T10:02:53;23.60;99.90
11656;DHT22;5884;43.618;1.438;2022-07-04T10:05:24;23.80;99.90
11656;DHT22;5884;43.618;1.438;2022-07-04T10:07:54;24.30;99.90
11656;DHT22;5884;43.618;1.438;2022-07-04T10:10:27;24.50;99.90
11656;DHT22;5884;43.618;1.438;2022-07-04T10:12:57;24.10;99.90
11656;DHT22;5884;43.618;1.438;2022-07-04T10:15:26;24.20;99.90
11656;DHT22;5884;43.618;1.438;2022-07-04T10:17:53;24.60;99.90
11656;DHT22;5884;43.618;1.438;2022-07-04T10:20:21;24.80;99.90
11656;DHT22;5884;43.618;1.438;2022-07-04T10:22:50;24.20;99.90
11656;DHT22;5884;43.618;1.438;2022-07-04T10:25:17;24.40;99.90
11656;DHT22;5884;43.618;1.438;2022-07-04T10:27:44;24.60;99.90
11656;DHT22;5884;43.618;1.438;2022-07-04T10:30:15;24.70;99.90
11656;DHT22;5884;43.618;1.438;2022-07-04T10:32:45;24.30;99.90
11656;DHT22;5884;43.618;1.438;2022-07-04T10:35:14;24.40;99.90
11656;DHT22;5884;43.618;1.438;2022-07-04T10:38:03;24.60;99.90
11656;DHT22;5884;43.618;1.438;2022-07-04T10:40:44;24.90;99.90
11656;DHT22;5884;43.618;1.438;2022-07-04T10:43:55;25.10;99.90
11656;DHT22;5884;43.618;1.438;2022-07-04T10:46:36;25.30;99.90
11656;DHT22;5884;43.618;1.438;2022-07-04T10:49:06;25.50;99.90
11656;DHT22;5884;43.618;1.438;2022-07-04T10:51:38;25.30;99.90
11656;DHT22;5884;43.618;1.438;2022-07-04T10:54:12;25.10;99.90
11656;DHT22;5884;43.618;1.438;2022-07-04T10:56:46;25.40;99.90
11656;DHT22;5884;43.618;1.438;2022-07-04T10:59:20;25.70;99.90
11656;DHT22;5884;43.618;1.438;2022-07-04T11:01:53;25.70;99.90
11656;DHT22;5884;43.618;1.438;2022-07-04T11:04:51;25.60;99.90
11656;DHT22;5884;43.618;1.438;2022-07-04T11:07:21;25.70;99.90
11656;DHT22;5884;43.618;1.438;2022-07-04T11:10:18;25.80;99.90
11656;DHT22;5884;43.618;1.438;2022-07-04T11:13:15;25.60;99.90
11656;DHT22;5884;43.618;1.438;2022-07-04T11:16:06;25.70;99.90
11656;DHT22;5884;43.618;1.438;2022-07-04T11:18:41;25.70;99.90
11656;DHT22;5884;43.618;1.438;2022-07-04T11:21:22;25.90;99.90
11656;DHT22;5884;43.618;1.438;2022-07-04T11:23:54;26.00;99.90
11656;DHT22;5884;43.618;1.438;2022-07-04T11:26:24;26.00;99.90
11656;DHT22;5884;43.618;1.438;2022-07-04T11:28:52;26.00;99.90
11656;DHT22;5884;43.618;1.438;2022-07-04T11:31:19;25.80;99.90
11656;DHT22;5884;43.618;1.438;2022-07-04T11:33:47;26.10;99.90
11656;DHT22;5884;43.618;1.438;2022-07-04T11:36:16;26.10;99.90
11656;DHT22;5884;43.618;1.438;2022-07-04T11:38:49;26.00;99.90
11656;DHT22;5884;43.618;1.438;2022-07-04T11:41:24;25.70;99.90
11656;DHT22;5884;43.618;1.438;2022-07-04T11:44:11;26.10;99.90
11656;DHT22;5884;43.618;1.438;2022-07-04T11:47:09;26.00;99.90
11656;DHT22;5884;43.618;1.438;2022-07-04T11:49:42;26.50;99.90
11656;DHT22;5884;43.618;1.438;2022-07-04T11:52:11;26.30;99.90
11656;DHT22;5884;43.618;1.438;2022-07-04T11:54:40;26.30;99.90
11656;DHT22;5884;43.618;1.438;2022-07-04T11:57:11;26.20;99.90
11656;DHT22;5884;43.618;1.438;2022-07-04T11:59:40;26.10;99.90
11656;DHT22;5884;43.618;1.438;2022-07-04T12:02:12;26.10;99.90
11656;DHT22;5884;43.618;1.438;2022-07-04T12:04:40;26.00;99.90
11656;DHT22;5884;43.618;1.438;2022-07-04T12:07:09;25.90;99.90
11656;DHT22;5884;43.618;1.438;2022-07-04T12:09:38;26.10;99.90
11656;DHT22;5884;43.618;1.438;2022-07-04T12:12:06;26.10;99.90
11656;DHT22;5884;43.618;1.438;2022-07-04T12:14:36;26.10;99.90
11656;DHT22;5884;43.618;1.438;2022-07-04T12:17:15;26.50;99.90
11656;DHT22;5884;43.618;1.438;2022-07-04T12:19:53;26.50;99.90
11656;DHT22;5884;43.618;1.438;2022-07-04T12:22:40;26.10;99.90
11656;DHT22;5884;43.618;1.438;2022-07-04T12:25:20;26.10;99.90
11656;DHT22;5884;43.618;1.438;2022-07-04T12:27:54;26.00;99.90
11656;DHT22;5884;43.618;1.438;2022-07-04T12:30:24;26.40;99.90
11656;DHT22;5884;43.618;1.438;2022-07-04T12:32:53;26.30;99.90
11656;DHT22;5884;43.618;1.438;2022-07-04T12:35:39;26.20;99.90
11656;DHT22;5884;43.618;1.438;2022-07-04T12:38:10;26.00;99.90
11656;DHT22;5884;43.618;1.438;2022-07-04T12:40:50;26.20;99.90
11656;DHT22;5884;43.618;1.438;2022-07-04T12:43:19;26.10;99.90
11656;DHT22;5884;43.618;1.438;2022-07-04T12:45:50;25.80;99.90
11656;DHT22;5884;43.618;1.438;2022-07-04T12:48:22;26.00;99.90
11656;DHT22;5884;43.618;1.438;2022-07-04T12:50:51;26.30;99.90
11656;DHT22;5884;43.618;1.438;2022-07-04T12:53:19;26.30;99.90
11656;DHT22;5884;43.618;1.438;2022-07-04T12:55:48;26.60;99.90
11656;DHT22;5884;43.618;1.438;2022-07-04T12:58:16;26.80;99.90
11656;DHT22;5884;43.618;1.438;2022-07-04T13:00:43;26.60;99.90
11656;DHT22;5884;43.618;1.438;2022-07-04T13:03:12;26.60;99.90
11656;DHT22;5884;43.618;1.438;2022-07-04T13:05:39;26.80;99.90
11656;DHT22;5884;43.618;1.438;2022-07-04T13:08:07;26.90;99.90
11656;DHT22;5884;43.618;1.438;2022-07-04T13:10:34;27.00;99.90
11656;DHT22;5884;43.618;1.438;2022-07-04T13:13:02;27.00;99.90
11656;DHT22;5884;43.618;1.438;2022-07-04T13:15:28;26.90;99.90
11656;DHT22;5884;43.618;1.438;2022-07-04T13:17:56;26.60;99.90
11656;DHT22;5884;43.618;1.438;2022-07-04T13:20:25;26.60;99.90
11656;DHT22;5884;43.618;1.438;2022-07-04T13:22:53;26.70;99.90
11656;DHT22;5884;43.618;1.438;2022-07-04T13:25:20;26.70;99.90
11656;DHT22;5884;43.618;1.438;2022-07-04T13:27:48;27.10;99.90
11656;DHT22;5884;43.618;1.438;2022-07-04T13:30:16;27.00;99.90
11656;DHT22;5884;43.618;1.438;2022-07-04T13:32:43;27.00;99.90
11656;DHT22;5884;43.618;1.438;2022-07-04T13:35:10;27.10;99.90
11656;DHT22;5884;43.618;1.438;2022-07-04T13:37:39;27.20;99.90
11656;DHT22;5884;43.618;1.438;2022-07-04T13:40:07;27.10;99.90
11656;DHT22;5884;43.618;1.438;2022-07-04T13:42:35;27.00;99.90
11656;DHT22;5884;43.618;1.438;2022-07-04T13:45:20;27.00;99.90
11656;DHT22;5884;43.618;1.438;2022-07-04T13:47:47;26.90;99.90
11656;DHT22;5884;43.618;1.438;2022-07-04T13:50:15;27.00;99.90
11656;DHT22;5884;43.618;1.438;2022-07-04T13:52:43;27.10;99.90
11656;DHT22;5884;43.618;1.438;2022-07-04T13:55:11;27.20;99.90
11656;DHT22;5884;43.618;1.438;2022-07-04T13:57:38;27.00;99.90
11656;DHT22;5884;43.618;1.438;2022-07-04T14:00:07;27.00;99.90
11656;DHT22;5884;43.618;1.438;2022-07-04T14:02:36;27.00;99.90
11656;DHT22;5884;43.618;1.438;2022-07-04T14:05:04;27.50;99.90
11656;DHT22;5884;43.618;1.438;2022-07-04T14:07:32;27.40;99.90
11656;DHT22;5884;43.618;1.438;2022-07-04T14:10:01;27.50;99.90
11656;DHT22;5884;43.618;1.438;2022-07-04T14:12:28;27.50;99.90
11656;DHT22;5884;43.618;1.438;2022-07-04T14:14:55;27.80;99.90
11656;DHT22;5884;43.618;1.438;2022-07-04T14:17:23;27.60;99.90
11656;DHT22;5884;43.618;1.438;2022-07-04T14:19:50;27.50;99.90
11656;DHT22;5884;43.618;1.438;2022-07-04T14:22:17;27.60;99.90
11656;DHT22;5884;43.618;1.438;2022-07-04T14:24:44;27.40;99.90
11656;DHT22;5884;43.618;1.438;2022-07-04T14:27:13;27.30;99.90
11656;DHT22;5884;43.618;1.438;2022-07-04T14:29:41;27.50;99.90
11656;DHT22;5884;43.618;1.438;2022-07-04T14:32:08;27.50;99.90
11656;DHT22;5884;43.618;1.438;2022-07-04T14:34:35;27.30;99.90
11656;DHT22;5884;43.618;1.438;2022-07-04T14:37:03;27.10;99.90
11656;DHT22;5884;43.618;1.438;2022-07-04T14:39:31;27.10;99.90
11656;DHT22;5884;43.618;1.438;2022-07-04T14:41:58;27.10;99.90
11656;DHT22;5884;43.618;1.438;2022-07-04T14:44:27;27.20;99.90
11656;DHT22;5884;43.618;1.438;2022-07-04T14:46:54;27.00;99.90
11656;DHT22;5884;43.618;1.438;2022-07-04T14:49:21;27.00;99.90
11656;DHT22;5884;43.618;1.438;2022-07-04T14:51:48;27.00;99.90
11656;DHT22;5884;43.618;1.438;2022-07-04T14:54:16;26.90;99.90
11656;DHT22;5884;43.618;1.438;2022-07-04T14:56:43;27.10;99.90
11656;DHT22;5884;43.618;1.438;2022-07-04T14:59:10;27.40;99.90
11656;DHT22;5884;43.618;1.438;2022-07-04T15:01:39;27.50;99.90
11656;DHT22;5884;43.618;1.438;2022-07-04T15:04:06;27.40;99.90
11656;DHT22;5884;43.618;1.438;2022-07-04T15:06:34;27.20;99.90
11656;DHT22;5884;43.618;1.438;2022-07-04T15:09:02;27.30;99.90
11656;DHT22;5884;43.618;1.438;2022-07-04T15:11:31;27.50;99.90
11656;DHT22;5884;43.618;1.438;2022-07-04T15:13:58;27.50;99.90
11656;DHT22;5884;43.618;1.438;2022-07-04T15:16:25;27.50;99.90
11656;DHT22;5884;43.618;1.438;2022-07-04T15:18:54;27.20;99.90
11656;DHT22;5884;43.618;1.438;2022-07-04T15:21:22;27.20;99.90
11656;DHT22;5884;43.618;1.438;2022-07-04T15:24:07;27.30;99.90
11656;DHT22;5884;43.618;1.438;2022-07-04T15:26:37;27.20;99.90
11656;DHT22;5884;43.618;1.438;2022-07-04T15:29:05;27.30;99.90
11656;DHT22;5884;43.618;1.438;2022-07-04T15:31:33;27.20;99.90
11656;DHT22;5884;43.618;1.438;2022-07-04T15:34:02;27.00;99.90
11656;DHT22;5884;43.618;1.438;2022-07-04T15:36:29;26.70;99.90
11656;DHT22;5884;43.618;1.438;2022-07-04T15:38:56;26.70;99.90
11656;DHT22;5884;43.618;1.438;2022-07-04T15:41:23;26.70;99.90
11656;DHT22;5884;43.618;1.438;2022-07-04T15:43:51;26.70;99.90
11656;DHT22;5884;43.618;1.438;2022-07-04T15:46:18;26.70;99.90
11656;DHT22;5884;43.618;1.438;2022-07-04T15:48:47;26.70;99.90
11656;DHT22;5884;43.618;1.438;2022-07-04T15:51:16;26.70;99.90
11656;DHT22;5884;43.618;1.438;2022-07-04T15:53:43;26.70;99.90
11656;DHT22;5884;43.618;1.438;2022-07-04T15:56:11;26.70;99.90
11656;DHT22;5884;43.618;1.438;2022-07-04T15:58:39;26.90;99.90
11656;DHT22;5884;43.618;1.438;2022-07-04T16:01:06;27.10;99.90
11656;DHT22;5884;43.618;1.438;2022-07-04T16:03:33;27.00;99.90
11656;DHT22;5884;43.618;1.438;2022-07-04T16:06:00;27.10;99.90
11656;DHT22;5884;43.618;1.438;2022-07-04T16:08:29;27.20;99.90
11656;DHT22;5884;43.618;1.438;2022-07-04T16:10:56;27.20;99.90
11656;DHT22;5884;43.618;1.438;2022-07-04T16:13:24;27.20;99.90
11656;DHT22;5884;43.618;1.438;2022-07-04T16:15:52;27.10;99.90
11656;DHT22;5884;43.618;1.438;2022-07-04T16:18:20;27.00;99.90
11656;DHT22;5884;43.618;1.438;2022-07-04T16:20:47;27.10;99.90
11656;DHT22;5884;43.618;1.438;2022-07-04T16:23:14;26.90;99.90
11656;DHT22;5884;43.618;1.438;2022-07-04T16:25:44;26.80;99.90
11656;DHT22;5884;43.618;1.438;2022-07-04T16:28:11;26.80;99.90
11656;DHT22;5884;43.618;1.438;2022-07-04T16:30:38;26.90;99.90
11656;DHT22;5884;43.618;1.438;2022-07-04T16:33:05;27.00;99.90
11656;DHT22;5884;43.618;1.438;2022-07-04T16:35:33;26.90;99.90
11656;DHT22;5884;43.618;1.438;2022-07-04T16:38:00;27.00;99.90
11656;DHT22;5884;43.618;1.438;2022-07-04T16:40:28;27.00;99.90
11656;DHT22;5884;43.618;1.438;2022-07-04T16:42:56;26.90;99.90
11656;DHT22;5884;43.618;1.438;2022-07-04T16:45:24;27.00;99.90
11656;DHT22;5884;43.618;1.438;2022-07-04T16:47:51;27.10;99.90
11656;DHT22;5884;43.618;1.438;2022-07-04T16:50:18;27.30;99.90
11656;DHT22;5884;43.618;1.438;2022-07-04T16:52:46;27.10;99.90
11656;DHT22;5884;43.618;1.438;2022-07-04T16:55:13;27.00;99.90
11656;DHT22;5884;43.618;1.438;2022-07-04T16:57:40;27.00;99.90
11656;DHT22;5884;43.618;1.438;2022-07-04T17:00:11;27.10;99.90
11656;DHT22;5884;43.618;1.438;2022-07-04T17:02:38;27.20;99.90
11656;DHT22;5884;43.618;1.438;2022-07-04T17:05:07;27.10;99.90
11656;DHT22;5884;43.618;1.438;2022-07-04T17:07:35;27.10;99.90
11656;DHT22;5884;43.618;1.438;2022-07-04T17:10:02;27.00;99.90
11656;DHT22;5884;43.618;1.438;2022-07-04T17:12:30;26.90;99.90
11656;DHT22;5884;43.618;1.438;2022-07-04T17:14:57;27.00;99.90
11656;DHT22;5884;43.618;1.438;2022-07-04T17:17:27;27.00;99.90
11656;DHT22;5884;43.618;1.438;2022-07-04T17:19:56;26.90;99.90
11656;DHT22;5884;43.618;1.438;2022-07-04T17:22:24;26.80;99.90
11656;DHT22;5884;43.618;1.438;2022-07-04T17:24:52;26.80;99.90
11656;DHT22;5884;43.618;1.438;2022-07-04T17:27:19;26.70;99.90
11656;DHT22;5884;43.618;1.438;2022-07-04T17:29:46;26.70;99.90
11656;DHT22;5884;43.618;1.438;2022-07-04T17:32:14;26.70;99.90
11656;DHT22;5884;43.618;1.438;2022-07-04T17:34:42;26.70;99.90
11656;DHT22;5884;43.618;1.438;2022-07-04T17:37:10;26.70;99.90
11656;DHT22;5884;43.618;1.438;2022-07-04T17:39:37;26.80;99.90
11656;DHT22;5884;43.618;1.438;2022-07-04T17:42:05;26.80;99.90
11656;DHT22;5884;43.618;1.438;2022-07-04T17:44:33;26.80;99.90
11656;DHT22;5884;43.618;1.438;2022-07-04T17:47:01;26.70;99.90
11656;DHT22;5884;43.618;1.438;2022-07-04T17:49:29;26.70;99.90
11656;DHT22;5884;43.618;1.438;2022-07-04T17:51:57;26.50;99.90
11656;DHT22;5884;43.618;1.438;2022-07-04T17:54:25;26.50;99.90
11656;DHT22;5884;43.618;1.438;2022-07-04T17:56:52;26.40;99.90
11656;DHT22;5884;43.618;1.438;2022-07-04T17:59:20;26.40;99.90
11656;DHT22;5884;43.618;1.438;2022-07-04T18:01:49;26.30;99.90
11656;DHT22;5884;43.618;1.438;2022-07-04T18:04:16;26.30;99.90
11656;DHT22;5884;43.618;1.438;2022-07-04T18:06:44;26.20;99.90
11656;DHT22;5884;43.618;1.438;2022-07-04T18:09:13;26.00;99.90
11656;DHT22;5884;43.618;1.438;2022-07-04T18:11:40;26.00;99.90
11656;DHT22;5884;43.618;1.438;2022-07-04T18:14:07;26.00;99.90
11656;DHT22;5884;43.618;1.438;2022-07-04T18:16:34;26.00;99.90
11656;DHT22;5884;43.618;1.438;2022-07-04T18:19:03;26.00;99.90
11656;DHT22;5884;43.618;1.438;2022-07-04T18:21:31;26.00;99.90
11656;DHT22;5884;43.618;1.438;2022-07-04T18:23:58;26.10;99.90
11656;DHT22;5884;43.618;1.438;2022-07-04T18:26:27;26.10;99.90
11656;DHT22;5884;43.618;1.438;2022-07-04T18:28:54;26.20;99.90
11656;DHT22;5884;43.618;1.438;2022-07-04T18:31:21;26.30;99.90
11656;DHT22;5884;43.618;1.438;2022-07-04T18:33:49;26.30;99.90
11656;DHT22;5884;43.618;1.438;2022-07-04T18:36:16;26.30;99.90
11656;DHT22;5884;43.618;1.438;2022-07-04T18:38:43;26.10;99.90
11656;DHT22;5884;43.618;1.438;2022-07-04T18:41:10;26.10;99.90
11656;DHT22;5884;43.618;1.438;2022-07-04T18:43:56;26.10;99.90
11656;DHT22;5884;43.618;1.438;2022-07-04T18:46:24;26.10;99.90
11656;DHT22;5884;43.618;1.438;2022-07-04T18:48:51;26.00;99.90
11656;DHT22;5884;43.618;1.438;2022-07-04T18:51:19;26.00;99.90
11656;DHT22;5884;43.618;1.438;2022-07-04T18:53:46;26.00;99.90
11656;DHT22;5884;43.618;1.438;2022-07-04T18:56:13;25.90;99.90
11656;DHT22;5884;43.618;1.438;2022-07-04T18:58:41;25.80;99.90
11656;DHT22;5884;43.618;1.438;2022-07-04T19:01:09;25.80;99.90
11656;DHT22;5884;43.618;1.438;2022-07-04T19:03:39;25.70;99.90
11656;DHT22;5884;43.618;1.438;2022-07-04T19:06:06;25.50;99.90
11656;DHT22;5884;43.618;1.438;2022-07-04T19:08:34;25.50;99.90
11656;DHT22;5884;43.618;1.438;2022-07-04T19:11:01;25.40;99.90
11656;DHT22;5884;43.618;1.438;2022-07-04T19:13:28;25.40;99.90
11656;DHT22;5884;43.618;1.438;2022-07-04T19:15:56;25.30;99.90
11656;DHT22;5884;43.618;1.438;2022-07-04T19:18:24;25.30;99.90
11656;DHT22;5884;43.618;1.438;2022-07-04T19:20:52;25.20;99.90
11656;DHT22;5884;43.618;1.438;2022-07-04T19:23:19;25.10;99.90
11656;DHT22;5884;43.618;1.438;2022-07-04T19:25:46;25.00;99.90
11656;DHT22;5884;43.618;1.438;2022-07-04T19:28:14;25.00;99.90
11656;DHT22;5884;43.618;1.438;2022-07-04T19:30:41;24.90;99.90
11656;DHT22;5884;43.618;1.438;2022-07-04T19:33:08;24.90;99.90
11656;DHT22;5884;43.618;1.438;2022-07-04T19:35:37;24.80;99.90
11656;DHT22;5884;43.618;1.438;2022-07-04T19:38:04;24.80;99.90
11656;DHT22;5884;43.618;1.438;2022-07-04T19:40:31;24.70;99.90
11656;DHT22;5884;43.618;1.438;2022-07-04T19:42:59;24.60;99.90
11656;DHT22;5884;43.618;1.438;2022-07-04T19:45:26;24.50;99.90
11656;DHT22;5884;43.618;1.438;2022-07-04T19:47:53;24.50;99.90
11656;DHT22;5884;43.618;1.438;2022-07-04T19:50:21;24.50;99.90
11656;DHT22;5884;43.618;1.438;2022-07-04T19:52:50;24.40;99.90
11656;DHT22;5884;43.618;1.438;2022-07-04T19:55:17;24.30;99.90
11656;DHT22;5884;43.618;1.438;2022-07-04T19:57:45;24.30;99.90
11656;DHT22;5884;43.618;1.438;2022-07-04T20:00:15;24.30;99.90
11656;DHT22;5884;43.618;1.438;2022-07-04T20:02:44;24.20;99.90
11656;DHT22;5884;43.618;1.438;2022-07-04T20:05:11;24.10;99.90
11656;DHT22;5884;43.618;1.438;2022-07-04T20:07:41;24.00;99.90
11656;DHT22;5884;43.618;1.438;2022-07-04T20:10:12;24.00;99.90
11656;DHT22;5884;43.618;1.438;2022-07-04T20:12:40;23.90;99.90
11656;DHT22;5884;43.618;1.438;2022-07-04T20:15:08;23.80;99.90
11656;DHT22;5884;43.618;1.438;2022-07-04T20:17:37;23.80;99.90
11656;DHT22;5884;43.618;1.438;2022-07-04T20:20:09;23.70;99.90
11656;DHT22;5884;43.618;1.438;2022-07-04T20:22:37;23.60;99.90
11656;DHT22;5884;43.618;1.438;2022-07-04T20:25:05;23.50;99.90
11656;DHT22;5884;43.618;1.438;2022-07-04T20:27:34;23.40;99.90
11656;DHT22;5884;43.618;1.438;2022-07-04T20:30:04;23.40;99.90
11656;DHT22;5884;43.618;1.438;2022-07-04T20:32:31;23.40;99.90
11656;DHT22;5884;43.618;1.438;2022-07-04T20:35:00;23.30;99.90
11656;DHT22;5884;43.618;1.438;2022-07-04T20:37:29;23.20;99.90
11656;DHT22;5884;43.618;1.438;2022-07-04T20:39:57;23.20;99.90
11656;DHT22;5884;43.618;1.438;2022-07-04T20:42:24;23.20;99.90
11656;DHT22;5884;43.618;1.438;2022-07-04T20:44:53;23.20;99.90